createdAt,value
2017-08-03T00:02:21.680Z,101333.09
2017-08-03T00:04:50.330Z,101327.84
2017-08-03T00:07:18.678Z,101326.02
2017-08-03T00:09:47.039Z,101327.89
2017-08-03T00:12:15.871Z,101329.53
2017-08-03T00:14:44.203Z,101334.33
2017-08-03T00:17:12.564Z,101334.07
2017-08-03T00:19:41.522Z,101322.49
2017-08-03T00:22:09.859Z,101319.17
2017-08-03T00:24:38.200Z,101317.44
2017-08-03T00:27:06.806Z,101317.09
2017-08-03T00:29:35.165Z,101312.69
2017-08-03T00:32:03.493Z,101310.52
2017-08-03T00:34:32.402Z,101303.96
2017-08-03T00:37:00.769Z,101294.80
2017-08-03T00:39:29.115Z,101292.09
2017-08-03T00:41:58.283Z,101289.41
2017-08-03T00:44:26.637Z,101279.02
2017-08-03T00:46:55.019Z,101277.44
2017-08-03T00:49:23.917Z,101270.11
2017-08-03T00:51:52.273Z,101258.53
2017-08-03T00:54:20.613Z,101263.92
2017-08-03T00:56:49.579Z,101254.50
2017-08-03T00:59:17.921Z,101260.77
2017-08-03T01:01:46.266Z,101273.95
2017-08-03T01:04:15.222Z,101269.90
2017-08-03T01:06:43.581Z,101270.11
2017-08-03T01:09:12.713Z,101268.44
2017-08-03T01:11:41.695Z,101260.16
2017-08-03T01:14:10.066Z,101259.45
2017-08-03T01:16:38.426Z,101253.20
2017-08-03T01:19:07.034Z,101246.61
2017-08-03T01:21:35.394Z,101247.50
2017-08-03T01:24:03.736Z,101254.50
2017-08-03T01:26:32.484Z,101259.78
2017-08-03T01:29:00.827Z,101256.61
2017-08-03T01:31:29.176Z,101256.26
2017-08-03T01:33:57.830Z,101252.85
2017-08-03T01:36:26.178Z,101248.05
2017-08-03T01:38:55.296Z,101249.09
2017-08-03T01:41:24.091Z,101235.08
2017-08-03T01:43:52.448Z,101237.83
2017-08-03T01:46:20.790Z,101226.63
2017-08-03T01:48:49.743Z,101225.12
2017-08-03T01:51:18.087Z,101231.30
2017-08-03T01:53:46.430Z,101227.19
2017-08-03T01:56:15.175Z,101224.80
2017-08-03T01:58:43.514Z,101226.21
2017-08-03T02:01:11.862Z,101230.20
2017-08-03T02:03:40.481Z,101235.14
2017-08-03T02:06:08.838Z,101233.02
2017-08-03T02:08:37.202Z,101231.28
2017-08-03T02:11:06.304Z,101232.39
2017-08-03T02:13:34.657Z,101226.35
2017-08-03T02:16:03.015Z,101213.75
2017-08-03T02:18:31.721Z,101198.18
2017-08-03T02:21:00.077Z,101185.08
2017-08-03T02:23:29.194Z,101180.11
2017-08-03T02:25:57.814Z,101167.36
2017-08-03T02:28:26.151Z,101155.98
2017-08-03T02:30:54.529Z,101154.59
2017-08-03T02:33:23.654Z,101146.06
2017-08-03T02:35:52.033Z,101139.92
2017-08-03T02:38:20.494Z,101140.22
2017-08-03T02:40:49.924Z,101132.50
2017-08-03T02:43:18.269Z,101128.82
2017-08-03T02:45:47.368Z,101125.53
2017-08-03T02:48:16.041Z,101131.65
2017-08-03T02:50:45.154Z,101121.30
2017-08-03T02:53:14.269Z,101117.50
2017-08-03T02:55:43.035Z,101106.16
2017-08-03T02:58:11.402Z,101105.45
2017-08-03T03:00:40.503Z,101110.50
2017-08-03T03:03:09.950Z,101102.72
2017-08-03T03:05:38.305Z,101104.34
2017-08-03T03:08:06.641Z,101107.51
2017-08-03T03:10:35.304Z,101107.13
2017-08-03T03:13:03.657Z,101105.16
2017-08-03T03:15:32.024Z,101113.48
2017-08-03T03:18:00.972Z,101107.57
2017-08-03T03:20:29.306Z,101113.48
2017-08-03T03:22:57.650Z,101115.15
2017-08-03T03:25:27.081Z,101122.66
2017-08-03T03:27:55.423Z,101114.52
2017-08-03T03:30:23.789Z,101112.64
2017-08-03T03:32:52.435Z,101103.78
2017-08-03T03:35:20.777Z,101107.15
2017-08-03T03:37:49.185Z,101117.08
2017-08-03T03:40:17.880Z,101110.45
2017-08-03T03:42:46.241Z,101105.95
2017-08-03T03:45:14.571Z,101105.09
2017-08-03T03:47:43.419Z,101118.29
2017-08-03T03:50:11.802Z,101121.36
2017-08-03T03:52:40.156Z,101100.94
2017-08-03T03:55:09.056Z,101084.57
2017-08-03T03:57:37.399Z,101080.51
2017-08-03T04:00:06.532Z,101076.30
2017-08-03T04:02:35.229Z,101073.78
2017-08-03T04:05:03.593Z,101066.67
2017-08-03T04:07:31.954Z,101068.25
2017-08-03T04:10:01.582Z,101067.94
2017-08-03T04:12:29.917Z,101059.12
2017-08-03T04:14:58.268Z,101056.51
2017-08-03T04:17:26.922Z,101050.53
2017-08-03T04:19:56.042Z,101046.60
2017-08-03T04:22:24.411Z,101044.95
2017-08-03T04:24:53.300Z,101035.08
2017-08-03T04:27:21.632Z,101040.03
2017-08-03T04:29:49.976Z,101042.80
2017-08-03T04:32:18.605Z,101031.13
2017-08-03T04:34:46.960Z,101023.42
2017-08-03T04:37:15.297Z,101029.30
2017-08-03T04:39:43.911Z,101022.72
2017-08-03T04:42:12.262Z,101023.36
2017-08-03T04:44:40.610Z,101011.36
2017-08-03T04:47:09.463Z,101012.86
2017-08-03T04:49:38.137Z,101008.08
2017-08-03T04:52:06.472Z,101002.59
2017-08-03T04:54:35.902Z,101013.96
2017-08-03T04:57:04.258Z,101016.59
2017-08-03T04:59:33.366Z,101023.20
2017-08-03T05:02:02.775Z,101017.72
2017-08-03T05:04:31.125Z,101013.54
2017-08-03T05:06:59.471Z,101014.05
2017-08-03T05:09:28.304Z,100999.06
2017-08-03T05:11:57.405Z,101003.66
2017-08-03T05:14:26.523Z,100999.91
2017-08-03T05:16:55.292Z,100999.87
2017-08-03T05:19:23.638Z,101001.61
2017-08-03T05:21:52.008Z,101007.12
2017-08-03T05:24:20.723Z,101013.17
2017-08-03T05:26:49.070Z,101005.18
2017-08-03T05:29:17.804Z,101005.88
2017-08-03T05:31:47.428Z,100996.25
2017-08-03T05:34:15.792Z,100992.87
2017-08-03T05:36:44.905Z,100991.85
2017-08-03T05:39:13.592Z,101000.11
2017-08-03T05:41:41.915Z,100984.94
2017-08-03T05:44:10.253Z,100974.89
2017-08-03T05:46:38.976Z,100976.74
2017-08-03T05:49:07.357Z,100975.95
2017-08-03T05:51:35.715Z,100972.75
2017-08-03T05:54:04.817Z,100955.81
2017-08-03T05:56:33.170Z,100954.80
2017-08-03T05:59:01.526Z,100946.30
2017-08-03T06:01:30.430Z,100941.72
2017-08-03T06:03:58.766Z,100940.62
2017-08-03T06:06:27.123Z,100931.08
2017-08-03T06:08:55.785Z,100922.59
2017-08-03T06:11:24.195Z,100924.87
2017-08-03T06:13:52.536Z,100917.59
2017-08-03T06:16:21.536Z,100927.19
2017-08-03T06:18:49.906Z,100926.80
2017-08-03T06:21:18.246Z,100919.61
2017-08-03T06:23:46.908Z,100917.53
2017-08-03T06:26:15.264Z,100913.62
2017-08-03T06:28:43.611Z,100907.52
2017-08-03T06:31:12.240Z,100902.64
2017-08-03T06:33:40.591Z,100898.48
2017-08-03T06:36:08.938Z,100907.30
2017-08-03T06:38:37.745Z,100904.28
2017-08-03T06:41:06.862Z,100904.77
2017-08-03T06:43:35.257Z,100897.66
2017-08-03T06:46:04.176Z,100901.08
2017-08-03T06:48:32.536Z,100901.08
2017-08-03T06:51:00.870Z,100897.04
2017-08-03T06:53:29.486Z,100891.03
2017-08-03T06:55:57.839Z,100878.05
2017-08-03T06:58:26.207Z,100885.09
2017-08-03T07:00:55.849Z,100896.50
2017-08-03T07:03:24.194Z,100896.03
2017-08-03T07:05:52.556Z,100896.81
2017-08-03T07:08:21.295Z,100889.19
2017-08-03T07:10:49.642Z,100880.91
2017-08-03T07:13:18.799Z,100890.42
2017-08-03T07:15:47.476Z,100892.95
2017-08-03T07:18:15.824Z,100874.33
2017-08-03T07:20:44.167Z,100854.25
2017-08-03T07:23:13.258Z,100866.16
2017-08-03T07:25:47.159Z,100860.23
2017-08-03T07:28:15.897Z,100839.55
2017-08-03T07:30:44.251Z,100843.72
2017-08-03T07:33:13.500Z,100859.02
2017-08-03T07:35:42.263Z,100850.83
2017-08-03T07:38:10.602Z,100847.62
2017-08-03T07:40:38.949Z,100845.85
2017-08-03T07:43:07.712Z,100838.55
2017-08-03T07:45:36.080Z,100831.47
2017-08-03T07:48:04.490Z,100812.61
2017-08-03T07:50:33.160Z,100812.91
2017-08-03T07:53:01.560Z,100812.19
2017-08-03T07:55:29.919Z,100810.03
2017-08-03T07:57:58.706Z,100814.11
2017-08-03T08:00:27.122Z,100804.66
2017-08-03T08:02:55.514Z,100798.39
2017-08-03T08:05:24.316Z,100792.27
2017-08-03T08:07:52.697Z,100795.88
2017-08-03T08:10:21.129Z,100793.80
2017-08-03T08:12:49.881Z,100794.99
2017-08-03T08:15:18.298Z,100791.60
2017-08-03T08:17:46.673Z,100783.99
2017-08-03T08:20:15.521Z,100783.95
2017-08-03T08:22:43.888Z,100783.73
2017-08-03T08:25:12.243Z,100786.65
2017-08-03T08:27:41.041Z,100772.82
2017-08-03T08:30:09.431Z,100769.53
2017-08-03T08:32:37.796Z,100764.43
2017-08-03T08:35:06.577Z,100756.73
2017-08-03T08:37:34.980Z,100745.80
2017-08-03T08:40:03.433Z,100745.42
2017-08-03T08:42:32.088Z,100738.53
2017-08-03T08:45:00.510Z,100726.03
2017-08-03T08:47:28.937Z,100721.97
2017-08-03T08:49:57.810Z,100721.16
2017-08-03T08:52:26.200Z,100713.97
2017-08-03T08:54:55.429Z,100723.04
2017-08-03T08:57:24.357Z,100705.71
2017-08-03T08:59:52.758Z,100704.95
2017-08-03T09:02:21.215Z,100701.75
2017-08-03T09:04:49.874Z,100694.27
2017-08-03T09:07:18.267Z,100691.16
2017-08-03T09:09:46.685Z,100687.76
2017-08-03T09:12:15.579Z,100681.01
2017-08-03T09:14:43.943Z,100683.59
2017-08-03T09:17:12.343Z,100678.83
2017-08-03T09:19:41.094Z,100676.38
2017-08-03T09:22:09.438Z,100679.73
2017-08-03T09:24:37.879Z,100680.16
2017-08-03T09:27:06.606Z,100669.56
2017-08-03T09:29:34.953Z,100670.91
2017-08-03T09:32:03.341Z,100671.08
2017-08-03T09:34:32.973Z,100669.30
2017-08-03T09:37:01.400Z,100672.44
2017-08-03T09:39:29.781Z,100676.26
2017-08-03T09:41:58.554Z,100665.33
2017-08-03T09:44:26.965Z,100668.66
2017-08-03T09:46:55.310Z,100671.13
2017-08-03T09:49:24.059Z,100664.49
2017-08-03T09:51:52.415Z,100673.11
2017-08-03T09:54:20.783Z,100649.73
2017-08-03T09:56:49.704Z,100641.33
2017-08-03T09:59:18.059Z,100646.54
2017-08-03T10:01:46.393Z,100635.11
2017-08-03T10:04:15.368Z,100623.88
2017-08-03T10:06:43.766Z,100624.45
2017-08-03T10:09:12.134Z,100632.31
2017-08-03T10:11:40.818Z,100608.80
2017-08-03T10:14:09.170Z,100609.75
2017-08-03T10:16:38.281Z,100599.47
2017-08-03T10:19:07.148Z,100605.10
2017-08-03T10:21:36.262Z,100593.38
2017-08-03T10:24:05.379Z,100596.59
2017-08-03T10:26:34.066Z,100602.47
2017-08-03T10:29:02.418Z,100594.83
2017-08-03T10:31:30.855Z,100587.87
2017-08-03T10:33:59.612Z,100590.94
2017-08-03T10:36:28.004Z,100577.34
2017-08-03T10:38:56.398Z,100578.06
2017-08-03T10:41:25.543Z,100587.16
2017-08-03T10:43:53.935Z,100583.83
2017-08-03T10:46:22.277Z,100582.76
2017-08-03T10:48:50.930Z,100575.51
2017-08-03T10:51:19.275Z,100571.55
2017-08-03T10:53:47.636Z,100561.87
2017-08-03T10:56:16.369Z,100564.28
2017-08-03T10:58:44.715Z,100565.77
2017-08-03T11:01:13.131Z,100566.37
2017-08-03T11:03:42.030Z,100562.78
2017-08-03T11:06:10.421Z,100554.98
2017-08-03T11:08:38.822Z,100541.54
2017-08-03T11:11:07.526Z,100539.34
2017-08-03T11:13:35.883Z,100530.34
2017-08-03T11:16:04.227Z,100534.19
2017-08-03T11:18:32.902Z,100521.52
2017-08-03T11:21:01.243Z,100527.55
2017-08-03T11:23:30.362Z,100525.88
2017-08-03T11:25:59.071Z,100521.87
2017-08-03T11:28:27.405Z,100530.84
2017-08-03T11:30:55.882Z,100522.08
2017-08-03T11:33:24.726Z,100529.05
2017-08-03T11:35:53.079Z,100532.47
2017-08-03T11:38:21.500Z,100528.48
2017-08-03T11:40:50.125Z,100536.30
2017-08-03T11:43:19.307Z,100534.00
2017-08-03T11:45:47.693Z,100529.84
2017-08-03T11:48:16.712Z,100524.95
2017-08-03T11:50:45.328Z,100503.08
2017-08-03T11:53:13.651Z,100498.24
2017-08-03T11:55:42.344Z,100518.73
2017-08-03T11:58:10.685Z,100517.45
2017-08-03T12:00:39.039Z,100507.15
2017-08-03T12:03:07.754Z,100511.23
2017-08-03T12:05:36.204Z,100495.75
2017-08-03T12:08:04.808Z,100492.16
2017-08-03T12:10:33.765Z,100491.68
2017-08-03T12:13:02.179Z,100492.06
2017-08-03T12:15:30.519Z,100501.19
2017-08-03T12:17:59.320Z,100477.84
2017-08-03T12:20:27.693Z,100475.22
2017-08-03T12:22:56.137Z,100468.06
2017-08-03T12:25:25.606Z,100471.39
2017-08-03T12:27:53.966Z,100468.85
2017-08-03T12:30:22.345Z,100463.33
2017-08-03T12:32:51.427Z,100465.69
2017-08-03T12:35:19.810Z,100465.85
2017-08-03T12:37:48.210Z,100459.84
2017-08-03T12:40:16.995Z,100460.55
2017-08-03T12:42:45.385Z,100454.63
2017-08-03T12:45:13.801Z,100460.60
2017-08-03T12:47:42.606Z,100457.65
2017-08-03T12:50:10.986Z,100463.53
2017-08-03T12:52:39.791Z,100455.20
2017-08-03T12:55:08.796Z,100455.14
2017-08-03T12:57:37.152Z,100455.21
2017-08-03T13:00:06.300Z,100453.52
2017-08-03T13:02:35.263Z,100453.82
2017-08-03T13:05:03.602Z,100448.13
2017-08-03T13:07:31.944Z,100454.68
2017-08-03T13:10:00.577Z,100453.02
2017-08-03T13:12:28.937Z,100447.84
2017-08-03T13:14:57.269Z,100446.70
2017-08-03T13:17:26.085Z,100450.87
2017-08-03T13:19:54.729Z,100452.39
2017-08-03T13:22:23.155Z,100451.63
2017-08-03T13:24:52.094Z,100439.56
2017-08-03T13:27:20.459Z,100447.05
2017-08-03T13:29:48.855Z,100433.38
2017-08-03T13:32:18.425Z,100437.92
2017-08-03T13:34:46.872Z,100442.19
2017-08-03T13:37:15.301Z,100434.03
2017-08-03T13:39:45.435Z,100445.59
2017-08-03T13:42:14.591Z,100433.69
2017-08-03T13:44:42.981Z,100454.89
2017-08-03T13:47:11.895Z,100446.71
2017-08-03T13:49:40.284Z,100434.05
2017-08-03T13:52:08.650Z,100430.03
2017-08-03T13:54:38.133Z,100443.58
2017-08-03T13:57:06.539Z,100444.16
2017-08-03T13:59:34.902Z,100445.05
2017-08-03T14:02:04.194Z,100448.02
2017-08-03T14:04:32.561Z,100441.28
2017-08-03T14:07:00.935Z,100438.00
2017-08-03T14:09:30.503Z,100438.95
2017-08-03T14:11:58.856Z,100449.29
2017-08-03T14:14:27.255Z,100445.26
2017-08-03T14:16:56.045Z,100455.84
2017-08-03T14:19:24.409Z,100453.56
2017-08-03T14:21:52.791Z,100451.31
2017-08-03T14:24:21.765Z,100461.00
2017-08-03T14:26:50.153Z,100468.39
2017-08-03T14:29:18.489Z,100477.16
2017-08-03T14:31:47.234Z,100469.52
2017-08-03T14:34:15.590Z,100461.13
2017-08-03T14:36:44.084Z,100481.69
2017-08-03T14:39:12.896Z,100478.31
2017-08-03T14:41:41.364Z,100483.91
2017-08-03T14:44:09.845Z,100481.19
2017-08-03T14:46:39.137Z,100496.57
2017-08-03T14:49:07.490Z,100472.31
2017-08-03T14:51:35.884Z,100484.27
2017-08-03T14:54:04.547Z,100499.81
2017-08-03T14:56:32.978Z,100501.60
2017-08-03T14:59:01.343Z,100495.61
2017-08-03T15:01:30.277Z,100513.80
2017-08-03T15:03:58.664Z,100507.75
2017-08-03T15:06:27.021Z,100501.16
2017-08-03T15:08:55.818Z,100499.58
2017-08-03T15:11:24.152Z,100513.59
2017-08-03T15:13:52.521Z,100502.30
2017-08-03T15:16:21.152Z,100506.83
2017-08-03T15:18:49.508Z,100518.05
2017-08-03T15:21:17.874Z,100518.31
2017-08-03T15:23:46.756Z,100523.06
2017-08-03T15:26:15.125Z,100517.91
2017-08-03T15:28:43.495Z,100516.16
2017-08-03T15:31:12.396Z,100499.06
2017-08-03T15:33:40.862Z,100509.75
2017-08-03T15:36:09.318Z,100513.70
2017-08-03T15:38:38.115Z,100513.84
2017-08-03T15:41:06.449Z,100533.88
2017-08-03T15:43:34.788Z,100511.12
2017-08-03T15:46:03.455Z,100552.21
2017-08-03T15:48:31.811Z,100556.55
2017-08-03T15:51:00.924Z,100558.06
2017-08-03T15:53:29.753Z,100568.75
2017-08-03T15:55:58.185Z,100576.44
2017-08-03T15:58:26.520Z,100577.81
2017-08-03T16:00:55.180Z,100573.58
2017-08-03T16:03:23.553Z,100566.67
2017-08-03T16:05:51.891Z,100572.66
2017-08-03T16:08:20.597Z,100570.45
2017-08-03T16:10:48.948Z,100568.09
2017-08-03T16:13:17.306Z,100564.75
2017-08-03T16:15:46.293Z,100564.59
2017-08-03T16:18:14.654Z,100577.20
2017-08-03T16:20:43.012Z,100584.22
2017-08-03T16:23:11.686Z,100583.09
2017-08-03T16:25:40.025Z,100575.69
2017-08-03T16:28:08.378Z,100578.47
2017-08-03T16:30:37.063Z,100580.47
2017-08-03T16:33:05.414Z,100577.68
2017-08-03T16:35:33.783Z,100575.14
2017-08-03T16:38:03.547Z,100582.83
2017-08-03T16:40:31.895Z,100586.98
2017-08-03T16:43:00.257Z,100586.41
2017-08-03T16:45:29.674Z,100589.46
2017-08-03T16:47:58.046Z,100590.28
2017-08-03T16:50:27.173Z,100588.78
2017-08-03T16:52:55.994Z,100586.73
2017-08-03T16:55:24.452Z,100596.41
2017-08-03T16:57:52.892Z,100591.80
2017-08-03T17:00:21.751Z,100595.24
2017-08-03T17:02:50.233Z,100589.05
2017-08-03T17:05:18.608Z,100599.52
2017-08-03T17:07:47.281Z,100594.06
2017-08-03T17:10:15.678Z,100584.37
2017-08-03T17:12:44.034Z,100590.17
2017-08-03T17:15:12.733Z,100595.43
2017-08-03T17:17:41.081Z,100593.65
2017-08-03T17:20:09.499Z,100601.41
2017-08-03T17:22:38.349Z,100602.22
2017-08-03T17:25:06.693Z,100600.55
2017-08-03T17:27:35.821Z,100604.35
2017-08-03T17:30:04.507Z,100602.28
2017-08-03T17:32:32.885Z,100606.55
2017-08-03T17:35:01.244Z,100611.80
2017-08-03T17:37:30.126Z,100611.11
2017-08-03T17:39:59.299Z,100612.00
2017-08-03T17:42:27.663Z,100613.30
2017-08-03T17:44:56.697Z,100617.34
2017-08-03T17:47:25.047Z,100620.30
2017-08-03T17:49:53.392Z,100624.74
2017-08-03T17:52:23.029Z,100625.30
2017-08-03T17:54:51.653Z,100625.53
2017-08-03T17:57:20.009Z,100625.89
2017-08-03T17:59:48.731Z,100635.38
2017-08-03T18:02:17.093Z,100628.86
2017-08-03T18:04:45.442Z,100630.81
2017-08-03T18:07:14.460Z,100633.81
2017-08-03T18:09:42.821Z,100634.80
2017-08-03T18:12:11.290Z,100630.28
2017-08-03T18:14:40.339Z,100640.06
2017-08-03T18:17:08.739Z,100637.80
2017-08-03T18:19:37.170Z,100645.86
2017-08-03T18:22:06.094Z,100650.16
2017-08-03T18:24:34.561Z,100641.27
2017-08-03T18:27:02.930Z,100641.78
2017-08-03T18:29:31.890Z,100645.98
2017-08-03T18:32:00.309Z,100649.39
2017-08-03T18:34:28.728Z,100650.75
2017-08-03T18:36:57.464Z,100657.69
2017-08-03T18:39:25.826Z,100656.66
2017-08-03T18:41:54.193Z,100666.08
2017-08-03T18:44:22.879Z,100662.97
2017-08-03T18:46:51.233Z,100660.33
2017-08-03T18:49:19.647Z,100670.70
2017-08-03T18:51:48.675Z,100683.28
2017-08-03T18:54:17.794Z,100681.92
2017-08-03T18:56:46.186Z,100678.53
2017-08-03T18:59:15.074Z,100685.53
2017-08-03T19:01:43.422Z,100684.01
2017-08-03T19:04:11.802Z,100681.50
2017-08-03T19:06:40.454Z,100691.23
2017-08-03T19:09:08.825Z,100694.00
2017-08-03T19:11:37.248Z,100697.50
2017-08-03T19:14:06.005Z,100700.58
2017-08-03T19:16:34.507Z,100704.02
2017-08-03T19:19:02.938Z,100696.13
2017-08-03T19:21:31.693Z,100700.91
2017-08-03T19:24:00.942Z,100707.06
2017-08-03T19:26:29.439Z,100713.47
2017-08-03T19:28:58.252Z,100709.28
2017-08-03T19:31:26.631Z,100715.07
2017-08-03T19:33:55.822Z,100720.32
2017-08-03T19:36:24.822Z,100723.86
2017-08-03T19:38:53.193Z,100729.75
2017-08-03T19:41:21.570Z,100720.18
2017-08-03T19:43:50.251Z,100727.66
2017-08-03T19:46:18.655Z,100725.44
2017-08-03T19:48:47.089Z,100723.97
2017-08-03T19:51:15.880Z,100725.98
2017-08-03T19:53:44.275Z,100729.84
2017-08-03T19:56:12.681Z,100738.50
2017-08-03T19:58:41.844Z,100731.17
2017-08-03T20:01:11.249Z,100736.38
2017-08-03T20:03:39.754Z,100737.13
2017-08-03T20:06:08.433Z,100741.56
2017-08-03T20:08:39.853Z,100745.59
2017-08-03T20:11:16.231Z,100755.20
2017-08-03T20:13:45.428Z,100747.53
2017-08-03T20:16:13.834Z,100743.27
2017-08-03T20:18:42.993Z,100741.33
2017-08-03T20:21:11.395Z,100733.02
2017-08-03T20:23:39.822Z,100738.22
2017-08-03T20:26:08.480Z,100746.98
2017-08-03T20:28:36.920Z,100741.72
2017-08-03T20:31:05.267Z,100748.26
2017-08-03T20:33:33.940Z,100740.04
2017-08-03T20:36:02.281Z,100735.71
2017-08-03T20:38:30.663Z,100740.88
2017-08-03T20:40:59.416Z,100742.47
2017-08-03T20:43:27.801Z,100740.01
2017-08-03T20:45:56.244Z,100735.41
2017-08-03T20:48:25.780Z,100733.00
2017-08-03T20:50:54.196Z,100733.53
2017-08-03T20:53:22.597Z,100736.63
2017-08-03T20:55:51.240Z,100735.33
2017-08-03T20:58:19.581Z,100737.88
2017-08-03T21:00:47.911Z,100737.69
2017-08-03T21:03:16.773Z,100739.72
2017-08-03T21:05:45.134Z,100740.52
2017-08-03T21:08:13.472Z,100743.70
2017-08-03T21:10:42.166Z,100740.03
2017-08-03T21:13:10.496Z,100743.70
2017-08-03T21:15:38.851Z,100743.59
2017-08-03T21:18:08.370Z,100749.17
2017-08-03T21:20:36.727Z,100750.91
2017-08-03T21:23:05.075Z,100740.62
2017-08-03T21:25:34.129Z,100743.48
2017-08-03T21:28:02.462Z,100741.70
2017-08-03T21:30:30.821Z,100739.06
2017-08-03T21:32:59.614Z,100743.04
2017-08-03T21:35:27.961Z,100747.16
2017-08-03T21:37:56.298Z,100744.00
2017-08-03T21:40:25.027Z,100739.57
2017-08-03T21:42:53.367Z,100738.31
2017-08-03T21:45:21.703Z,100734.62
2017-08-03T21:47:50.471Z,100731.76
2017-08-03T21:50:18.825Z,100736.78
2017-08-03T21:52:47.957Z,100740.09
2017-08-03T21:55:16.604Z,100733.14
2017-08-03T21:57:45.721Z,100734.63
2017-08-03T22:00:14.058Z,100735.00
2017-08-03T22:02:42.709Z,100736.31
2017-08-03T22:05:11.060Z,100738.77
2017-08-03T22:07:39.406Z,100733.55
2017-08-03T22:10:08.132Z,100730.91
2017-08-03T22:12:36.483Z,100737.39
2017-08-03T22:15:04.817Z,100740.39
2017-08-03T22:17:33.467Z,100740.81
2017-08-03T22:20:01.822Z,100742.08
2017-08-03T22:22:30.951Z,100735.12
2017-08-03T22:25:00.282Z,100722.23
2017-08-03T22:27:28.633Z,100724.09
2017-08-03T22:29:56.963Z,100717.37
2017-08-03T22:32:26.142Z,100728.64
2017-08-03T22:34:54.484Z,100726.22
2017-08-03T22:37:22.817Z,100733.23
2017-08-03T22:39:51.651Z,100728.80
2017-08-03T22:42:19.970Z,100722.50
2017-08-03T22:44:48.310Z,100724.77
2017-08-03T22:47:16.934Z,100730.88
2017-08-03T22:49:45.280Z,100730.12
2017-08-03T22:52:13.627Z,100730.59
2017-08-03T22:54:42.379Z,100722.03
2017-08-03T22:57:10.722Z,100725.33
2017-08-03T22:59:39.082Z,100729.26
2017-08-03T23:02:07.719Z,100723.56
2017-08-03T23:04:36.054Z,100716.37
2017-08-03T23:07:04.400Z,100710.66
2017-08-03T23:09:33.221Z,100711.66
2017-08-03T23:12:01.546Z,100707.52
2017-08-03T23:14:29.878Z,100709.31
2017-08-03T23:16:58.867Z,100708.69
2017-08-03T23:19:27.221Z,100711.44
2017-08-03T23:21:55.571Z,100709.45
2017-08-03T23:24:24.334Z,100705.70
2017-08-03T23:26:52.678Z,100705.76
2017-08-03T23:29:21.782Z,100695.61
2017-08-03T23:31:51.145Z,100700.02
2017-08-03T23:34:19.483Z,100704.29
2017-08-03T23:36:47.829Z,100694.47
2017-08-03T23:39:16.856Z,100698.45
2017-08-03T23:41:45.206Z,100698.27
2017-08-03T23:44:13.549Z,100695.13
2017-08-03T23:46:42.278Z,100698.37
2017-08-03T23:49:10.639Z,100703.08
2017-08-03T23:51:38.971Z,100702.17
2017-08-03T23:54:07.744Z,100709.95
2017-08-03T23:56:36.095Z,100704.53
2017-08-03T23:59:04.440Z,100695.84
